Time;durP1;ratioP1;P1;durP2;ratioP2;P2;SDS_P1;SDS_P2;PMS_P1;PMS_P2;Temp;Humidity;BMP_temperature;BMP_pressure;BME280_temperature;BME280_humidity;BME280_pressure;Samples;Min_cycle;Max_cycle;Signal;HPM_P1;HPM_P2
2023/07/12 00:04:32;;;;;;;11.55;6.80;;;;;;;;;;10488295;28;20055;-83
2023/07/12 00:09:33;;;;;;;10.90;6.88;;;;;;;;;;10477877;28;20491;-83
2023/07/12 00:14:34;;;;;;;9.40;6.35;;;;;;;;;;10488525;28;20064;-83
2023/07/12 00:19:35;;;;;;;9.98;6.40;;;;;;;;;;10477107;28;20036;-85
2023/07/12 00:24:36;;;;;;;14.18;7.55;;;;;;;;;;10489793;28;20488;-84
2023/07/12 00:29:37;;;;;;;14.90;8.02;;;;;;;;;;10475707;28;20040;-83
2023/07/12 00:34:38;;;;;;;13.90;8.38;;;;;;;;;;10487253;28;20098;-83
2023/07/12 00:39:39;;;;;;;15.18;8.32;;;;;;;;;;10487612;28;20055;-83
2023/07/12 00:44:45;;;;;;;12.05;8.40;;;;;;;;;;10482870;28;20103;-83
2023/07/12 00:49:46;;;;;;;11.90;7.65;;;;;;;;;;10487046;28;20496;-83
2023/07/12 00:54:55;;;;;;;12.80;8.38;;;;;;;;;;10487991;28;20039;-83
2023/07/12 01:00:10;;;;;;;12.70;7.93;;;;;;;;;;10480976;28;20384;-84
2023/07/12 01:05:11;;;;;;;12.23;7.28;;;;;;;;;;10479269;28;20055;-83
2023/07/12 01:10:12;;;;;;;11.15;8.13;;;;;;;;;;10488149;28;20037;-83
2023/07/12 01:15:13;;;;;;;11.95;7.82;;;;;;;;;;10485895;28;20464;-83
2023/07/12 01:20:14;;;;;;;15.98;8.25;;;;;;;;;;10475377;28;20037;-83
2023/07/12 01:25:16;;;;;;;16.17;8.68;;;;;;;;;;10485719;28;20047;-84
2023/07/12 01:30:19;;;;;;;16.15;8.90;;;;;;;;;;10477080;28;20033;-83
2023/07/12 01:35:21;;;;;;;14.27;8.15;;;;;;;;;;10495951;28;20080;-84
2023/07/12 01:40:22;;;;;;;16.30;8.95;;;;;;;;;;10485354;28;20472;-84
2023/07/12 01:45:23;;;;;;;13.93;8.68;;;;;;;;;;10479883;28;20051;-83
2023/07/12 01:50:24;;;;;;;13.18;8.15;;;;;;;;;;10485615;28;20474;-84
2023/07/12 01:55:25;;;;;;;14.60;7.45;;;;;;;;;;10481831;28;20032;-83
2023/07/12 02:00:26;;;;;;;12.88;7.78;;;;;;;;;;10476751;28;20037;-83
2023/07/12 02:05:27;;;;;;;15.93;8.07;;;;;;;;;;10486668;28;20040;-84
2023/07/12 02:10:28;;;;;;;15.27;8.77;;;;;;;;;;10484098;28;20035;-83
2023/07/12 02:15:29;;;;;;;14.45;8.60;;;;;;;;;;10472975;28;20582;-83
2023/07/12 02:20:30;;;;;;;12.60;7.97;;;;;;;;;;10477640;28;20111;-83
2023/07/12 02:25:31;;;;;;;15.90;8.02;;;;;;;;;;10478274;28;20468;-82
2023/07/12 02:30:32;;;;;;;15.77;8.63;;;;;;;;;;10485165;28;20084;-83
2023/07/12 02:35:33;;;;;;;14.70;8.50;;;;;;;;;;10472546;28;20116;-83
2023/07/12 02:40:34;;;;;;;14.23;8.63;;;;;;;;;;10483286;28;20037;-82
2023/07/12 02:45:35;;;;;;;14.45;8.23;;;;;;;;;;10484476;28;20824;-82
2023/07/12 02:50:36;;;;;;;14.63;8.68;;;;;;;;;;10469122;28;20029;-83
2023/07/12 02:55:37;;;;;;;15.65;9.25;;;;;;;;;;10482703;28;20040;-81
2023/07/12 03:00:38;;;;;;;15.25;8.57;;;;;;;;;;10483571;28;20113;-83
2023/07/12 03:05:40;;;;;;;14.65;7.60;;;;;;;;;;10470973;28;20365;-82
2023/07/12 03:10:41;;;;;;;14.98;8.60;;;;;;;;;;10472770;28;20024;-83
2023/07/12 03:15:42;;;;;;;13.50;8.15;;;;;;;;;;10481438;28;20101;-82
2023/07/12 03:20:43;;;;;;;13.95;7.75;;;;;;;;;;10482346;28;20037;-81
2023/07/12 03:25:45;;;;;;;12.20;7.57;;;;;;;;;;10472669;28;20040;-83
2023/07/12 03:31:03;;;;;;;12.65;7.95;;;;;;;;;;10483913;28;20054;-83
2023/07/12 03:36:04;;;;;;;11.80;6.93;;;;;;;;;;10474964;28;20032;-82
2023/07/12 03:41:07;;;;;;;13.35;7.75;;;;;;;;;;10469240;28;20791;-82
2023/07/12 03:46:08;;;;;;;12.48;7.72;;;;;;;;;;10488356;28;20044;-81
2023/07/12 03:51:09;;;;;;;14.98;7.85;;;;;;;;;;10487619;28;20033;-84
2023/07/12 03:56:10;;;;;;;15.10;8.32;;;;;;;;;;10477903;28;20029;-84
2023/07/12 04:01:12;;;;;;;16.17;8.10;;;;;;;;;;10478845;28;20064;-83
2023/07/12 04:06:13;;;;;;;15.55;7.85;;;;;;;;;;10478403;28;20040;-83
2023/07/12 04:11:25;;;;;;;16.05;7.55;;;;;;;;;;10466933;28;20448;-82
2023/07/12 04:16:26;;;;;;;14.55;7.95;;;;;;;;;;10488154;28;20496;-82
2023/07/12 04:21:27;;;;;;;13.07;7.55;;;;;;;;;;10491752;28;20021;-82
2023/07/12 04:26:28;;;;;;;14.02;7.10;;;;;;;;;;10483615;28;20060;-83
2023/07/12 04:31:29;;;;;;;11.70;6.53;;;;;;;;;;10500972;28;20043;-83
2023/07/12 04:36:30;;;;;;;11.57;6.40;;;;;;;;;;10496587;28;20654;-82
2023/07/12 04:41:31;;;;;;;11.90;6.43;;;;;;;;;;10484291;28;20036;-83
2023/07/12 04:46:32;;;;;;;10.88;6.57;;;;;;;;;;10490002;28;20035;-85
2023/07/12 04:51:33;;;;;;;12.40;7.18;;;;;;;;;;10488670;28;20733;-83
2023/07/12 04:56:34;;;;;;;11.82;7.68;;;;;;;;;;10487087;28;20110;-83
2023/07/12 05:01:36;;;;;;;13.18;7.65;;;;;;;;;;10490077;28;20143;-83
2023/07/12 05:06:37;;;;;;;15.25;9.20;;;;;;;;;;10488937;28;20040;-84
2023/07/12 05:11:38;;;;;;;13.98;8.30;;;;;;;;;;10483378;28;20028;-83
2023/07/12 05:16:39;;;;;;;14.55;7.63;;;;;;;;;;10487639;28;20625;-83
2023/07/12 05:21:40;;;;;;;7.43;5.50;;;;;;;;;;10482926;28;20036;-84
2023/07/12 05:26:41;;;;;;;10.98;5.93;;;;;;;;;;10487948;28;20154;-83
2023/07/12 05:31:42;;;;;;;11.82;6.80;;;;;;;;;;10487018;28;20021;-84
2023/07/12 05:36:44;;;;;;;16.35;6.10;;;;;;;;;;10486626;28;20030;-83
2023/07/12 05:41:45;;;;;;;16.42;6.75;;;;;;;;;;10487089;28;20033;-84
2023/07/12 05:46:48;;;;;;;12.40;7.50;;;;;;;;;;10485758;28;20048;-83
2023/07/12 05:51:49;;;;;;;10.70;6.82;;;;;;;;;;10483202;28;20117;-84
2023/07/12 05:56:50;;;;;;;11.40;7.57;;;;;;;;;;10459566;28;20083;-88
2023/07/12 06:01:51;;;;;;;14.02;7.18;;;;;;;;;;10480319;28;20134;-88
2023/07/12 06:06:52;;;;;;;12.27;6.57;;;;;;;;;;10474274;28;20056;-89
2023/07/12 06:11:53;;;;;;;9.68;6.13;;;;;;;;;;10483249;28;20032;-90
2023/07/12 06:16:54;;;;;;;8.43;6.35;;;;;;;;;;10484564;28;20478;-88
2023/07/12 06:21:55;;;;;;;11.00;6.50;;;;;;;;;;10485417;28;20031;-89
2023/07/12 06:26:56;;;;;;;10.75;6.35;;;;;;;;;;10484233;28;20036;-88
2023/07/12 06:31:57;;;;;;;7.60;4.95;;;;;;;;;;10483494;28;20167;-87
2023/07/12 06:36:58;;;;;;;13.82;5.72;;;;;;;;;;10483811;28;20024;-88
2023/07/12 06:42:00;;;;;;;11.88;5.95;;;;;;;;;;10483806;28;20085;-88
2023/07/12 06:47:01;;;;;;;14.52;6.25;;;;;;;;;;10484043;28;20139;-88
2023/07/12 06:52:03;;;;;;;12.82;5.72;;;;;;;;;;10484374;28;20020;-89
2023/07/12 06:57:04;;;;;;;9.93;5.85;;;;;;;;;;10484590;28;20020;-88
2023/07/12 07:02:05;;;;;;;15.77;5.95;;;;;;;;;;10485248;28;20103;-89
2023/07/12 07:07:06;;;;;;;15.88;6.70;;;;;;;;;;10482840;28;20040;-89
2023/07/12 07:12:08;;;;;;;9.55;5.20;;;;;;;;;;10482923;28;20082;-88
2023/07/12 07:17:10;;;;;;;11.50;5.57;;;;;;;;;;10484383;28;20536;-86
2023/07/12 07:22:11;;;;;;;10.90;5.57;;;;;;;;;;10491372;28;20031;-87
2023/07/12 07:27:12;;;;;;;9.50;5.10;;;;;;;;;;10504712;28;20036;-87
2023/07/12 07:32:13;;;;;;;10.45;5.53;;;;;;;;;;10493485;28;20060;-85
2023/07/12 07:37:14;;;;;;;10.73;5.60;;;;;;;;;;10492337;28;20077;-86
2023/07/12 07:42:16;;;;;;;12.35;5.85;;;;;;;;;;10491558;28;20025;-86
2023/07/12 07:47:17;;;;;;;10.63;5.50;;;;;;;;;;10489980;28;20677;-85
2023/07/12 07:52:18;;;;;;;9.68;5.70;;;;;;;;;;10490226;28;20031;-85
2023/07/12 07:57:20;;;;;;;10.73;5.60;;;;;;;;;;10490341;28;20288;-86
2023/07/12 08:02:22;;;;;;;9.88;5.80;;;;;;;;;;10491748;28;20052;-85
2023/07/12 08:07:23;;;;;;;9.10;6.15;;;;;;;;;;10490841;28;20039;-86
2023/07/12 08:12:24;;;;;;;8.40;5.90;;;;;;;;;;10489516;28;20035;-85
2023/07/12 08:17:25;;;;;;;10.15;6.10;;;;;;;;;;10489742;28;20523;-85
2023/07/12 08:22:26;;;;;;;11.68;6.50;;;;;;;;;;10481322;28;20032;-85
2023/07/12 08:27:28;;;;;;;9.43;5.90;;;;;;;;;;10488004;28;20507;-85
2023/07/12 08:32:30;;;;;;;10.57;6.25;;;;;;;;;;10477463;28;20066;-85
2023/07/12 08:37:31;;;;;;;11.02;6.57;;;;;;;;;;10489290;28;20056;-86
2023/07/12 08:42:35;;;;;;;8.32;6.28;;;;;;;;;;10485867;28;20024;-85
2023/07/12 08:47:37;;;;;;;;;;;;;;;;;;10488559;28;20109;-85
2023/07/12 08:52:40;;;;;;;9.68;5.97;;;;;;;;;;10489979;28;19950;-84
2023/07/12 08:57:41;;;;;;;10.00;6.35;;;;;;;;;;10481155;28;20028;-86
2023/07/12 09:02:42;;;;;;;10.70;6.88;;;;;;;;;;10479231;28;20087;-84
2023/07/12 09:07:52;;;;;;;9.13;6.50;;;;;;;;;;10476954;28;20040;-85
2023/07/12 09:12:53;;;;;;;11.05;7.45;;;;;;;;;;10488147;28;20488;-87
2023/07/12 09:17:54;;;;;;;11.57;7.65;;;;;;;;;;10487930;28;20115;-87
2023/07/12 09:22:55;;;;;;;11.43;8.02;;;;;;;;;;10487512;28;20506;-87
2023/07/12 09:27:58;;;;;;;12.35;7.20;;;;;;;;;;10487708;28;20029;-87
2023/07/12 09:33:00;;;;;;;11.00;7.20;;;;;;;;;;10486925;28;20040;-88
2023/07/12 09:38:03;;;;;;;19.08;8.38;;;;;;;;;;10487599;28;20551;-88
2023/07/12 09:43:05;;;;;;;15.38;7.57;;;;;;;;;;10486523;28;20032;-87
2023/07/12 09:48:25;;;;;;;14.45;8.02;;;;;;;;;;10485416;28;20044;-87
2023/07/12 09:53:34;;;;;;;13.30;8.73;;;;;;;;;;10500230;28;20119;-87
2023/07/12 09:58:40;;;;;;;16.65;8.85;;;;;;;;;;10484945;28;20024;-89
2023/07/12 10:03:48;;;;;;;14.50;8.80;;;;;;;;;;10484940;28;20048;-88
2023/07/12 10:08:54;;;;;;;12.43;7.60;;;;;;;;;;10479227;28;20074;-89
2023/07/12 10:13:58;;;;;;;14.68;7.28;;;;;;;;;;10486423;28;20032;-89
2023/07/12 10:19:00;;;;;;;11.70;6.57;;;;;;;;;;10485614;28;20051;-89
2023/07/12 10:24:04;;;;;;;10.98;7.22;;;;;;;;;;10478736;28;20059;-87
2023/07/12 10:29:09;;;;;;;10.83;6.40;;;;;;;;;;10484855;28;20047;-86
2023/07/12 10:34:10;;;;;;;10.43;6.10;;;;;;;;;;10485691;28;21265;-88
2023/07/12 10:39:12;;;;;;;8.20;5.93;;;;;;;;;;10483169;28;20511;-87
2023/07/12 10:44:24;;;;;;;11.27;6.30;;;;;;;;;;10485293;28;20073;-85
2023/07/12 10:49:46;;;;;;;15.45;6.57;;;;;;;;;;10485492;28;20086;-86
2023/07/12 10:55:07;;;;;;;8.38;6.32;;;;;;;;;;10481536;28;20041;-86
2023/07/12 11:00:17;;;;;;;8.57;5.78;;;;;;;;;;10483278;28;20029;-88
2023/07/12 11:05:38;;;;;;;7.53;6.13;;;;;;;;;;10483832;28;20078;-84
2023/07/12 11:10:43;;;;;;;10.73;6.40;;;;;;;;;;10483182;28;20028;-87
2023/07/12 11:15:59;;;;;;;7.15;5.63;;;;;;;;;;10484503;28;20388;-84
2023/07/12 11:21:04;;;;;;;7.75;6.18;;;;;;;;;;10483477;28;20041;-82
2023/07/12 11:26:21;;;;;;;8.32;4.70;;;;;;;;;;10484225;28;20789;-85
2023/07/12 11:31:29;;;;;;;10.82;4.72;;;;;;;;;;10482171;28;20414;-85
2023/07/12 11:36:33;;;;;;;9.55;4.20;;;;;;;;;;10482957;28;20029;-86
2023/07/12 11:41:34;;;;;;;13.70;4.30;;;;;;;;;;10474201;28;20456;-87
2023/07/12 11:46:36;;;;;;;7.72;4.50;;;;;;;;;;10476210;28;20036;-85
2023/07/12 11:51:40;;;;;;;5.80;4.72;;;;;;;;;;10482053;28;20039;-85
2023/07/12 11:56:41;;;;;;;;;;;;;;;;;;10482419;28;20044;-84
2023/07/12 12:01:43;;;;;;;8.82;5.32;;;;;;;;;;10482383;28;19923;-85
2023/07/12 12:06:45;;;;;;;5.80;4.85;;;;;;;;;;10489735;28;20034;-86
2023/07/12 12:11:46;;;;;;;7.80;4.82;;;;;;;;;;10481068;28;20068;-88
2023/07/12 12:16:54;;;;;;;11.57;4.45;;;;;;;;;;10483484;28;20035;-86
2023/07/12 12:22:18;;;;;;;7.32;5.22;;;;;;;;;;10475912;28;20028;-87
2023/07/12 12:27:27;;;;;;;7.32;4.65;;;;;;;;;;10453397;28;20463;-86
2023/07/12 12:32:28;;;;;;;8.43;6.10;;;;;;;;;;10487892;28;20633;-85
2023/07/12 12:37:29;;;;;;;7.70;5.85;;;;;;;;;;10488831;28;20038;-84
2023/07/12 12:42:31;;;;;;;12.18;6.22;;;;;;;;;;10478213;28;20029;-85
2023/07/12 12:47:33;;;;;;;13.90;6.18;;;;;;;;;;10486830;28;20553;-85
2023/07/12 12:52:36;;;;;;;7.20;5.45;;;;;;;;;;10483133;28;20040;-86
2023/07/12 12:57:38;;;;;;;7.75;5.70;;;;;;;;;;10480599;28;20670;-85
2023/07/12 13:02:39;;;;;;;10.93;5.88;;;;;;;;;;10480433;28;20670;-83
2023/07/12 13:07:41;;;;;;;7.13;5.18;;;;;;;;;;10485291;28;20047;-84
2023/07/12 13:12:42;;;;;;;11.55;5.97;;;;;;;;;;10487381;28;20044;-83
2023/07/12 13:17:43;;;;;;;8.45;5.72;;;;;;;;;;10462058;28;20084;-83
2023/07/12 13:22:45;;;;;;;7.07;4.97;;;;;;;;;;10486652;28;20116;-84
2023/07/12 13:27:49;;;;;;;7.18;4.60;;;;;;;;;;10474151;28;20551;-85
2023/07/12 13:32:50;;;;;;;10.05;5.07;;;;;;;;;;10484941;28;20468;-85
2023/07/12 13:37:51;;;;;;;9.98;5.15;;;;;;;;;;10487872;28;20267;-85
2023/07/12 13:42:53;;;;;;;5.82;4.60;;;;;;;;;;10481497;28;20048;-85
2023/07/12 13:47:54;;;;;;;7.57;5.85;;;;;;;;;;10486991;28;20047;-85
2023/07/12 13:52:57;;;;;;;6.07;4.43;;;;;;;;;;10486500;28;20574;-83
2023/07/12 13:57:58;;;;;;;6.50;4.50;;;;;;;;;;10486216;28;20083;-85
2023/07/12 14:02:59;;;;;;;5.03;4.10;;;;;;;;;;10480322;28;20086;-85
2023/07/12 14:08:00;;;;;;;6.22;4.55;;;;;;;;;;10486205;28;20452;-84
2023/07/12 14:13:02;;;;;;;7.60;4.95;;;;;;;;;;10479955;28;20043;-87
2023/07/12 14:18:03;;;;;;;7.35;4.65;;;;;;;;;;10480004;28;20026;-87
2023/07/12 14:23:15;;;;;;;5.75;3.65;;;;;;;;;;10477780;28;20561;-88
2023/07/12 14:28:18;;;;;;;4.38;3.83;;;;;;;;;;10484816;28;20032;-86
2023/07/12 14:33:27;;;;;;;6.53;4.38;;;;;;;;;;10478496;28;20035;-87
2023/07/12 14:38:28;;;;;;;9.80;4.28;;;;;;;;;;10483217;28;20033;-86
2023/07/12 14:43:29;;;;;;;5.82;3.65;;;;;;;;;;10472879;28;20032;-86
2023/07/12 14:48:30;;;;;;;5.88;3.40;;;;;;;;;;10475621;28;20128;-85
2023/07/12 14:53:31;;;;;;;7.78;4.13;;;;;;;;;;10680712;22;20067;-87
2023/07/12 14:58:32;;;;;;;4.28;3.38;;;;;;;;;;10552357;28;20413;-86
2023/07/12 15:03:33;;;;;;;5.15;3.92;;;;;;;;;;10565824;28;21087;-87
2023/07/12 15:08:34;;;;;;;8.30;4.47;;;;;;;;;;10551533;28;20092;-88
2023/07/12 15:13:35;;;;;;;6.70;4.28;;;;;;;;;;10558795;28;20044;-88
2023/07/12 15:18:36;;;;;;;5.80;3.80;;;;;;;;;;10560851;28;20034;-87
2023/07/12 15:23:37;;;;;;;7.57;4.28;;;;;;;;;;10552177;28;20081;-87
2023/07/12 15:28:39;;;;;;;5.57;4.13;;;;;;;;;;10552844;28;20040;-88
2023/07/12 15:33:40;;;;;;;6.25;4.45;;;;;;;;;;10528209;28;20467;-88
2023/07/12 15:38:44;;;;;;;4.82;3.25;;;;;;;;;;10541870;28;20031;-89
2023/07/12 15:43:46;;;;;;;3.45;3.15;;;;;;;;;;10536977;28;20032;-87
2023/07/12 15:48:47;;;;;;;5.05;3.25;;;;;;;;;;10518455;28;20742;-88
2023/07/12 15:53:49;;;;;;;6.20;3.25;;;;;;;;;;10540422;28;20143;-88
2023/07/12 15:58:50;;;;;;;2.72;2.45;;;;;;;;;;10526404;28;20641;-86
2023/07/12 16:03:52;;;;;;;4.55;2.63;;;;;;;;;;10554030;28;20035;-88
2023/07/12 16:08:54;;;;;;;5.47;3.05;;;;;;;;;;10542857;28;20384;-90
2023/07/12 16:13:56;;;;;;;4.28;3.05;;;;;;;;;;10556299;28;20046;-88
2023/07/12 16:18:57;;;;;;;3.20;2.90;;;;;;;;;;10550059;28;20037;-86
2023/07/12 16:23:59;;;;;;;4.82;3.42;;;;;;;;;;10532333;28;20037;-87
2023/07/12 16:29:00;;;;;;;6.30;3.30;;;;;;;;;;10543359;28;20047;-87
2023/07/12 16:34:03;;;;;;;6.22;3.60;;;;;;;;;;10524955;28;20767;-86
2023/07/12 16:39:05;;;;;;;5.78;3.63;;;;;;;;;;10550385;28;20023;-89
2023/07/12 16:44:12;;;;;;;5.28;3.70;;;;;;;;;;10541051;28;20159;-86
2023/07/12 16:49:13;;;;;;;4.38;3.72;;;;;;;;;;10544560;28;20493;-86
2023/07/12 16:54:14;;;;;;;6.20;3.38;;;;;;;;;;10546230;28;20086;-87
2023/07/12 16:59:17;;;;;;;4.38;3.25;;;;;;;;;;10524026;28;20012;-86
2023/07/12 17:04:19;;;;;;;5.10;3.03;;;;;;;;;;10532249;28;20023;-87
2023/07/12 17:09:22;;;;;;;3.92;3.17;;;;;;;;;;10554053;28;20054;-87
2023/07/12 17:14:23;;;;;;;5.28;3.22;;;;;;;;;;10548058;28;20356;-87
2023/07/12 17:19:24;;;;;;;5.72;3.45;;;;;;;;;;10543401;28;20028;-87
2023/07/12 17:24:25;;;;;;;5.97;3.20;;;;;;;;;;10557321;28;20032;-87
2023/07/12 17:29:26;;;;;;;4.80;3.35;;;;;;;;;;10550250;28;20100;-87
2023/07/12 17:34:34;;;;;;;5.22;3.28;;;;;;;;;;10536971;28;20024;-85
2023/07/12 17:39:35;;;;;;;4.60;3.40;;;;;;;;;;10555501;28;20122;-87
2023/07/12 17:44:36;;;;;;;6.60;3.55;;;;;;;;;;10540234;28;20677;-86
2023/07/12 17:49:37;;;;;;;5.40;3.85;;;;;;;;;;10541305;28;20040;-85
2023/07/12 17:54:38;;;;;;;6.32;4.28;;;;;;;;;;10515921;28;1138186;-86
2023/07/12 17:59:43;;;;;;;6.70;4.30;;;;;;;;;;10532021;28;20036;-87
2023/07/12 18:04:45;;;;;;;6.80;4.68;;;;;;;;;;10555640;28;20023;-85
2023/07/12 18:09:46;;;;;;;8.07;5.57;;;;;;;;;;10538894;28;20039;-85
2023/07/12 18:14:47;;;;;;;8.27;5.65;;;;;;;;;;10552814;28;20515;-86
2023/07/12 18:19:50;;;;;;;15.68;9.75;;;;;;;;;;10506656;28;20070;-88
2023/07/12 18:24:51;;;;;;;13.90;8.32;;;;;;;;;;10532556;28;20080;-84
2023/07/12 18:29:52;;;;;;;13.63;8.07;;;;;;;;;;10556903;28;20074;-83
2023/07/12 18:34:53;;;;;;;10.55;7.75;;;;;;;;;;10544530;28;20024;-83
2023/07/12 18:39:55;;;;;;;6.93;5.07;;;;;;;;;;10520048;28;20392;-82
2023/07/12 18:44:56;;;;;;;5.85;4.40;;;;;;;;;;10514595;28;20548;-81
2023/07/12 18:49:57;;;;;;;5.85;4.15;;;;;;;;;;10563557;28;20036;-81
2023/07/12 18:54:58;;;;;;;4.25;3.60;;;;;;;;;;10523395;28;20048;-82
2023/07/12 18:59:59;;;;;;;5.03;3.88;;;;;;;;;;10524539;28;20044;-81
2023/07/12 19:05:00;;;;;;;4.20;3.40;;;;;;;;;;10551760;28;20039;-82
2023/07/12 19:10:01;;;;;;;5.47;2.85;;;;;;;;;;10553254;28;20074;-80
2023/07/12 19:15:03;;;;;;;5.00;3.15;;;;;;;;;;10538965;28;20075;-81
2023/07/12 19:20:06;;;;;;;5.95;3.53;;;;;;;;;;10563289;28;20122;-82
2023/07/12 19:25:07;;;;;;;4.75;3.55;;;;;;;;;;10569572;28;20028;-81
2023/07/12 19:30:11;;;;;;;4.38;3.70;;;;;;;;;;10548308;28;20406;-83
2023/07/12 19:35:25;;;;;;;8.70;4.27;;;;;;;;;;10570167;28;20091;-81
2023/07/12 19:40:27;;;;;;;6.35;4.20;;;;;;;;;;10522659;28;20024;-81
2023/07/12 19:45:28;;;;;;;5.53;4.18;;;;;;;;;;10561857;28;20743;-80
2023/07/12 19:50:31;;;;;;;7.97;4.80;;;;;;;;;;10552672;28;20145;-81
2023/07/12 19:55:32;;;;;;;6.93;4.50;;;;;;;;;;10567049;28;20051;-81
2023/07/12 20:00:33;;;;;;;6.00;4.65;;;;;;;;;;10545676;28;20034;-81
2023/07/12 20:05:34;;;;;;;9.50;4.72;;;;;;;;;;10561201;28;20035;-81
2023/07/12 20:10:35;;;;;;;6.45;4.85;;;;;;;;;;10549912;28;20048;-80
2023/07/12 20:15:36;;;;;;;6.60;4.75;;;;;;;;;;10552736;28;20024;-81
2023/07/12 20:20:37;;;;;;;6.38;4.40;;;;;;;;;;10559465;28;20027;-81
2023/07/12 20:25:38;;;;;;;7.30;3.67;;;;;;;;;;10551272;28;20035;-81
2023/07/12 20:30:39;;;;;;;5.03;4.47;;;;;;;;;;10560274;28;20027;-81
2023/07/12 20:35:41;;;;;;;5.18;4.05;;;;;;;;;;10573655;28;20027;-81
2023/07/12 20:40:42;;;;;;;7.68;4.65;;;;;;;;;;10562219;28;20035;-81
2023/07/12 20:45:43;;;;;;;5.85;4.22;;;;;;;;;;10544233;28;20084;-81
2023/07/12 20:50:46;;;;;;;5.90;4.45;;;;;;;;;;10557568;28;20378;-81
2023/07/12 20:55:47;;;;;;;8.77;5.25;;;;;;;;;;10561034;28;20071;-81
2023/07/12 21:00:48;;;;;;;5.70;4.70;;;;;;;;;;10553971;28;20368;-81
2023/07/12 21:05:58;;;;;;;8.88;5.88;;;;;;;;;;10574397;28;20255;-82
2023/07/12 21:11:00;;;;;;;9.25;6.07;;;;;;;;;;10545264;28;20037;-81
2023/07/12 21:16:03;;;;;;;7.97;5.97;;;;;;;;;;10536955;28;20036;-81
2023/07/12 21:21:04;;;;;;;7.40;5.75;;;;;;;;;;10564783;28;20042;-81
2023/07/12 21:26:05;;;;;;;10.93;6.53;;;;;;;;;;10554774;28;20031;-81
2023/07/12 21:31:07;;;;;;;13.57;7.68;;;;;;;;;;10557789;28;20475;-81
2023/07/12 21:36:08;;;;;;;12.98;6.95;;;;;;;;;;10571686;28;20541;-81
2023/07/12 21:41:12;;;;;;;10.45;6.72;;;;;;;;;;10554904;28;20039;-82
2023/07/12 21:46:13;;;;;;;9.00;5.83;;;;;;;;;;10549847;28;20075;-81
2023/07/12 21:51:15;;;;;;;9.57;6.38;;;;;;;;;;10560812;28;20180;-81
2023/07/12 21:56:16;;;;;;;9.60;7.03;;;;;;;;;;10540442;28;20044;-80
2023/07/12 22:01:17;;;;;;;10.20;7.03;;;;;;;;;;10557242;28;20494;-81
2023/07/12 22:06:20;;;;;;;11.60;7.07;;;;;;;;;;10553389;28;20040;-81
2023/07/12 22:11:22;;;;;;;9.10;6.40;;;;;;;;;;10538364;28;20106;-81
2023/07/12 22:16:27;;;;;;;9.07;6.13;;;;;;;;;;10549142;28;20020;-82
2023/07/12 22:21:28;;;;;;;9.98;5.93;;;;;;;;;;10560061;28;20027;-81
2023/07/12 22:26:30;;;;;;;8.38;5.47;;;;;;;;;;10536164;22;20056;-82
2023/07/12 22:31:32;;;;;;;8.07;5.82;;;;;;;;;;10444960;28;20710;-82
2023/07/12 22:36:33;;;;;;;8.40;5.45;;;;;;;;;;10443324;28;20535;-82
2023/07/12 22:41:34;;;;;;;10.30;6.40;;;;;;;;;;10445466;28;20021;-82
2023/07/12 22:46:35;;;;;;;7.63;5.78;;;;;;;;;;10469508;28;20037;-82
2023/07/12 22:51:36;;;;;;;7.47;5.72;;;;;;;;;;10444887;28;20041;-82
2023/07/12 22:56:37;;;;;;;12.90;7.53;;;;;;;;;;10444938;28;20104;-82
2023/07/12 23:01:38;;;;;;;10.18;7.70;;;;;;;;;;10442552;28;20493;-82
2023/07/12 23:06:40;;;;;;;12.38;7.35;;;;;;;;;;10459079;28;20075;-82
2023/07/12 23:11:43;;;;;;;11.65;7.82;;;;;;;;;;10443478;28;20033;-82
2023/07/12 23:16:44;;;;;;;15.90;11.52;;;;;;;;;;10444321;28;20029;-81
2023/07/12 23:21:46;;;;;;;12.95;8.43;;;;;;;;;;10449014;28;20055;-80
2023/07/12 23:26:47;;;;;;;12.98;8.65;;;;;;;;;;10443611;28;20044;-81
2023/07/12 23:31:48;;;;;;;11.70;8.45;;;;;;;;;;10446665;28;20178;-81
2023/07/12 23:36:49;;;;;;;19.65;12.68;;;;;;;;;;10443495;28;20094;-82
2023/07/12 23:41:51;;;;;;;18.60;12.40;;;;;;;;;;10446036;28;20086;-82
2023/07/12 23:46:52;;;;;;;13.80;9.55;;;;;;;;;;10444243;28;20044;-82
2023/07/12 23:51:56;;;;;;;14.90;10.23;;;;;;;;;;10443131;28;20468;-83
2023/07/12 23:57:01;;;;;;;16.33;11.00;;;;;;;;;;10443162;28;20622;-83
